createdAt,value
2022-09-10T00:01:01.581Z,25.33
2022-09-10T00:03:29.877Z,27.00
2022-09-10T00:05:57.586Z,31.00
2022-09-10T00:08:26.087Z,27.00
2022-09-10T00:10:53.848Z,26.00
2022-09-10T00:13:22.721Z,29.00
2022-09-10T00:15:54.860Z,28.67
2022-09-10T00:18:23.098Z,25.00
2022-09-10T00:20:55.370Z,27.00
2022-09-10T00:23:25.386Z,29.00
2022-09-10T00:25:54.352Z,25.50
2022-09-10T00:28:23.263Z,29.33
2022-09-10T00:30:52.468Z,28.00
2022-09-10T00:33:22.053Z,26.00
2022-09-10T00:35:50.249Z,25.50
2022-09-10T00:38:18.741Z,31.33
2022-09-10T00:40:46.905Z,26.67
2022-09-10T00:43:20.665Z,27.00
2022-09-10T00:45:53.022Z,27.00
2022-09-10T00:48:23.208Z,28.67
2022-09-10T00:50:53.743Z,27.00
2022-09-10T00:53:26.685Z,26.33
2022-09-10T00:55:56.127Z,28.00
2022-09-10T00:58:26.759Z,23.00
2022-09-10T01:00:58.226Z,24.00
2022-09-10T01:03:26.372Z,25.00
2022-09-10T01:05:54.247Z,28.00
2022-09-10T01:08:22.119Z,22.00
2022-09-10T01:11:09.133Z,24.33
2022-09-10T01:13:52.564Z,26.33
2022-09-10T01:16:28.984Z,29.50
2022-09-10T01:18:59.764Z,25.00
2022-09-10T01:21:57.633Z,24.00
2022-09-10T01:24:33.181Z,23.00
2022-09-10T01:27:00.828Z,26.00
2022-09-10T01:29:34.016Z,26.00
2022-09-10T01:32:08.438Z,26.67
2022-09-10T01:34:42.089Z,29.00
2022-09-10T01:37:17.395Z,26.67
2022-09-10T01:39:47.481Z,25.33
2022-09-10T01:42:16.460Z,22.50
2022-09-10T01:44:51.371Z,26.00
2022-09-10T01:47:28.016Z,26.00
2022-09-10T01:50:19.437Z,23.33
2022-09-10T01:52:47.915Z,22.00
2022-09-10T01:55:18.856Z,23.00
2022-09-10T01:58:03.272Z,25.00
2022-09-10T02:00:41.818Z,28.00
2022-09-10T02:03:11.743Z,26.67
2022-09-10T02:05:42.125Z,21.00
2022-09-10T02:08:14.665Z,24.33
2022-09-10T02:10:54.068Z,25.67
2022-09-10T02:13:24.193Z,23.33
2022-09-10T02:16:23.847Z,22.00
2022-09-10T02:18:51.784Z,25.00
2022-09-10T02:21:20.366Z,26.67
2022-09-10T02:23:50.998Z,29.00
2022-09-10T02:26:18.967Z,22.00
2022-09-10T02:28:49.756Z,21.00
2022-09-10T02:31:18.850Z,24.67
2022-09-10T02:33:46.768Z,21.00
2022-09-10T02:36:14.531Z,21.00
2022-09-10T02:38:42.401Z,26.50
2022-09-10T02:41:10.470Z,24.33
2022-09-10T02:43:38.324Z,24.00
2022-09-10T02:46:07.535Z,31.00
2022-09-10T02:48:36.912Z,34.50
2022-09-10T02:51:04.907Z,26.00
2022-09-10T02:53:32.815Z,26.67
2022-09-10T02:56:03.761Z,29.00
2022-09-10T02:58:31.586Z,36.00
2022-09-10T03:01:07.264Z,26.67
2022-09-10T03:03:36.333Z,27.50
2022-09-10T03:06:04.581Z,31.33
2022-09-10T03:08:32.942Z,27.67
2022-09-10T03:11:01.232Z,28.00
2022-09-10T03:13:29.262Z,34.67
2022-09-10T03:16:07.535Z,30.00
2022-09-10T03:18:35.551Z,28.00
2022-09-10T03:21:09.933Z,30.00
2022-09-10T03:23:38.311Z,27.67
2022-09-10T03:26:06.816Z,35.33
2022-09-10T03:28:34.599Z,28.00
2022-09-10T03:31:02.977Z,28.67
2022-09-10T03:33:32.235Z,30.00
2022-09-10T03:36:00.610Z,26.00
2022-09-10T03:38:29.185Z,30.00
2022-09-10T03:40:58.814Z,28.67
2022-09-10T03:43:26.571Z,32.50
2022-09-10T03:45:55.612Z,31.50
2022-09-10T03:48:23.859Z,27.67
2022-09-10T03:50:52.425Z,28.67
2022-09-10T03:53:20.255Z,27.33
2022-09-10T03:55:49.590Z,25.50
2022-09-10T03:58:18.591Z,27.00
2022-09-10T04:00:46.751Z,26.00
2022-09-10T04:03:14.747Z,28.67
2022-09-10T04:05:45.669Z,34.50
2022-09-10T04:08:14.867Z,27.00
2022-09-10T04:10:44.268Z,27.00
2022-09-10T04:13:12.553Z,29.50
2022-09-10T04:15:40.715Z,27.00
2022-09-10T04:18:08.937Z,27.00
2022-09-10T04:20:38.101Z,31.00
2022-09-10T04:23:09.467Z,26.50
2022-09-10T04:25:39.044Z,26.00
2022-09-10T04:28:07.042Z,32.00
2022-09-10T04:30:35.217Z,29.33
2022-09-10T04:33:03.063Z,31.67
2022-09-10T04:35:33.892Z,30.33
2022-09-10T04:38:04.422Z,27.00
2022-09-10T04:40:32.130Z,27.00
2022-09-10T04:42:59.951Z,27.00
2022-09-10T04:45:27.829Z,27.00
2022-09-10T04:47:56.196Z,26.50
2022-09-10T04:50:24.189Z,24.50
2022-09-10T04:53:27.962Z,23.00
2022-09-10T04:55:57.513Z,24.50
2022-09-10T04:58:25.373Z,28.00
2022-09-10T05:00:53.247Z,27.67
2022-09-10T05:03:22.617Z,26.00
2022-09-10T05:05:51.303Z,28.00
2022-09-10T05:08:19.173Z,23.00
2022-09-10T05:10:53.505Z,27.00
2022-09-10T05:13:21.360Z,27.00
2022-09-10T05:15:49.430Z,25.50
2022-09-10T05:18:17.501Z,27.00
2022-09-10T05:20:45.795Z,26.00
2022-09-10T05:23:14.262Z,32.00
2022-09-10T05:25:43.569Z,29.00
2022-09-10T05:28:12.238Z,26.00
2022-09-10T05:30:40.319Z,30.00
2022-09-10T05:33:08.179Z,24.00
2022-09-10T05:35:36.148Z,27.33
2022-09-10T05:38:04.119Z,27.00
2022-09-10T05:40:36.388Z,28.00
2022-09-10T05:43:04.487Z,27.00
2022-09-10T05:45:34.003Z,26.00
2022-09-10T05:48:03.589Z,27.00
2022-09-10T05:50:31.338Z,25.50
2022-09-10T05:53:01.357Z,26.00
2022-09-10T05:55:31.490Z,28.33
2022-09-10T05:57:59.549Z,28.00
2022-09-10T06:00:27.414Z,25.50
2022-09-10T06:03:00.825Z,24.00
2022-09-10T06:05:39.988Z,23.00
2022-09-10T06:08:08.991Z,23.00
2022-09-10T06:10:41.564Z,25.00
2022-09-10T06:13:11.436Z,26.33
2022-09-10T06:15:42.272Z,29.00
2022-09-10T06:18:10.454Z,29.67
2022-09-10T06:20:38.233Z,26.00
2022-09-10T06:23:07.105Z,24.00
2022-09-10T06:25:35.370Z,26.00
2022-09-10T06:28:03.135Z,26.33
2022-09-10T06:30:31.370Z,23.00
2022-09-10T06:32:59.488Z,28.00
2022-09-10T06:35:27.657Z,27.67
2022-09-10T06:37:58.596Z,23.33
2022-09-10T06:40:27.903Z,28.00
2022-09-10T06:42:56.379Z,25.00
2022-09-10T06:45:42.430Z,25.67
2022-09-10T06:48:47.618Z,29.00
2022-09-10T06:51:17.338Z,24.50
2022-09-10T06:53:48.977Z,29.00
2022-09-10T06:56:21.043Z,27.50
2022-09-10T06:58:50.548Z,23.00
2022-09-10T07:01:20.065Z,27.00
2022-09-10T07:04:00.476Z,23.00
2022-09-10T07:06:33.802Z,27.00
2022-09-10T07:09:16.369Z,20.33
2022-09-10T07:11:53.738Z,20.00
2022-09-10T07:14:22.601Z,22.33
2022-09-10T07:16:55.591Z,26.33
2022-09-10T07:19:25.709Z,23.33
2022-09-10T07:21:53.533Z,19.67
2022-09-10T07:24:21.530Z,27.00
2022-09-10T07:27:11.325Z,18.67
2022-09-10T07:29:42.786Z,23.50
2022-09-10T07:32:16.587Z,21.00
2022-09-10T07:34:47.386Z,22.33
2022-09-10T07:37:18.518Z,24.50
2022-09-10T07:39:47.243Z,26.33
2022-09-10T07:42:16.227Z,23.50
2022-09-10T07:44:45.546Z,28.50
2022-09-10T07:47:13.788Z,26.50
2022-09-10T07:49:41.788Z,20.33
2022-09-10T07:52:09.833Z,22.67
2022-09-10T07:54:44.806Z,25.00
2022-09-10T07:57:13.171Z,22.67
2022-09-10T07:59:41.633Z,22.33
2022-09-10T08:02:12.928Z,26.33
2022-09-10T08:04:41.278Z,27.00
2022-09-10T08:07:11.520Z,33.00
2022-09-10T08:09:40.150Z,27.00
2022-09-10T08:12:10.106Z,28.67
2022-09-10T08:14:38.203Z,26.33
2022-09-10T08:17:07.167Z,21.50
2022-09-10T08:19:39.551Z,24.33
2022-09-10T08:22:11.459Z,26.00
2022-09-10T08:24:44.720Z,29.67
2022-09-10T08:27:13.154Z,24.00
2022-09-10T08:29:42.750Z,34.00
2022-09-10T08:32:14.440Z,32.00
2022-09-10T08:34:42.582Z,21.67
2022-09-10T08:37:12.629Z,35.00
2022-09-10T08:39:40.890Z,27.00
2022-09-10T08:42:15.996Z,27.67
2022-09-10T08:44:50.811Z,23.00
2022-09-10T08:47:22.059Z,21.50
2022-09-10T08:49:52.940Z,30.00
2022-09-10T08:52:21.648Z,28.67
2022-09-10T08:54:57.711Z,23.67
2022-09-10T08:57:28.333Z,23.00
2022-09-10T08:59:56.920Z,24.33
2022-09-10T09:02:48.464Z,29.33
2022-09-10T09:05:23.064Z,29.33
2022-09-10T09:07:53.390Z,32.00
2022-09-10T09:10:24.723Z,33.33
2022-09-10T09:13:04.996Z,32.00
2022-09-10T09:15:41.682Z,35.33
2022-09-10T09:18:11.172Z,33.00
2022-09-10T09:20:44.841Z,32.00
2022-09-10T09:23:19.597Z,33.33
2022-09-10T09:25:54.021Z,28.67
2022-09-10T09:28:26.082Z,34.00
2022-09-10T09:30:57.981Z,31.67
2022-09-10T09:33:30.225Z,30.00
2022-09-10T09:36:01.880Z,26.00
2022-09-10T09:38:37.976Z,28.33
2022-09-10T09:41:08.069Z,31.00
2022-09-10T09:43:49.953Z,27.67
2022-09-10T09:46:19.871Z,32.33
2022-09-10T09:48:49.065Z,34.00
2022-09-10T09:51:21.335Z,34.67
2022-09-10T09:54:18.024Z,33.00
2022-09-10T09:56:45.892Z,36.67
2022-09-10T09:59:34.924Z,31.33
2022-09-10T10:02:11.893Z,37.33
2022-09-10T10:04:42.444Z,32.33
2022-09-10T10:07:12.050Z,33.00
2022-09-10T10:09:43.163Z,31.67
2022-09-10T10:12:21.584Z,35.00
2022-09-10T10:14:49.961Z,31.00
2022-09-10T10:17:26.572Z,27.00
2022-09-10T10:19:59.046Z,32.00
2022-09-10T10:22:28.045Z,32.00
2022-09-10T10:24:56.073Z,32.33
2022-09-10T10:27:30.107Z,33.33
2022-09-10T10:30:21.995Z,36.00
2022-09-10T10:32:56.125Z,27.00
2022-09-10T10:35:44.376Z,31.00
2022-09-10T10:38:29.643Z,36.50
2022-09-10T10:41:05.489Z,28.33
2022-09-10T10:43:39.001Z,30.00
2022-09-10T10:46:17.351Z,30.67
2022-09-10T10:48:48.865Z,25.00
2022-09-10T10:51:27.173Z,30.00
2022-09-10T10:54:06.926Z,28.67
2022-09-10T10:56:40.810Z,22.67
2022-09-10T10:59:17.920Z,38.00
2022-09-10T11:01:52.626Z,27.00
2022-09-10T11:04:21.948Z,28.00
2022-09-10T11:06:55.037Z,24.00
2022-09-10T11:09:41.131Z,25.00
2022-09-10T11:12:12.173Z,29.00
2022-09-10T11:14:43.624Z,23.67
2022-09-10T11:17:11.699Z,22.33
2022-09-10T11:19:43.168Z,27.00
2022-09-10T11:22:14.903Z,24.67
2022-09-10T11:24:55.471Z,28.33
2022-09-10T11:27:36.236Z,27.33
2022-09-10T11:30:05.984Z,27.67
2022-09-10T11:32:54.704Z,26.50
2022-09-10T11:35:34.718Z,32.00
2022-09-10T11:38:20.754Z,30.33
2022-09-10T11:41:09.604Z,27.33
2022-09-10T11:43:55.702Z,31.67
2022-09-10T11:46:26.626Z,24.33
2022-09-10T11:49:07.854Z,25.67
2022-09-10T11:51:37.180Z,29.33
2022-09-10T11:54:16.250Z,30.00
2022-09-10T11:56:53.033Z,26.33
2022-09-10T11:59:39.286Z,22.00
2022-09-10T12:02:25.803Z,29.33
2022-09-10T12:05:12.376Z,24.00
2022-09-10T12:07:49.726Z,23.00
2022-09-10T12:10:33.052Z,19.67
2022-09-10T12:13:01.116Z,18.00
2022-09-10T12:15:35.749Z,16.00
2022-09-10T12:18:07.272Z,18.50
2022-09-10T12:20:37.939Z,17.50
2022-09-10T12:23:06.633Z,18.00
2022-09-10T12:25:35.021Z,18.00
2022-09-10T12:28:05.644Z,17.33
2022-09-10T12:30:33.733Z,15.67
2022-09-10T12:33:27.890Z,15.00
2022-09-10T12:35:55.959Z,18.00
2022-09-10T12:38:42.259Z,16.33
2022-09-10T12:41:11.047Z,12.00
2022-09-10T12:43:39.133Z,18.67
2022-09-10T12:46:07.577Z,15.00
2022-09-10T12:48:37.029Z,14.00
2022-09-10T12:51:12.756Z,14.50
2022-09-10T12:53:47.376Z,13.50
2022-09-10T12:56:34.190Z,17.67
2022-09-10T12:59:20.498Z,14.00
2022-09-10T13:01:49.362Z,13.00
2022-09-10T13:04:20.271Z,13.00
2022-09-10T13:06:48.698Z,14.50
2022-09-10T13:09:39.503Z,14.00
2022-09-10T13:12:18.330Z,11.33
2022-09-10T13:14:47.832Z,14.00
2022-09-10T13:17:34.733Z,13.00
2022-09-10T13:20:14.390Z,14.00
2022-09-10T13:23:17.452Z,15.00
2022-09-10T13:25:46.251Z,18.00
2022-09-10T13:28:29.094Z,13.00
2022-09-10T13:30:59.963Z,15.00
2022-09-10T13:33:30.936Z,13.50
2022-09-10T13:36:17.060Z,13.00
2022-09-10T13:38:47.900Z,11.00
2022-09-10T13:41:24.750Z,11.50
2022-09-10T13:44:04.828Z,14.00
2022-09-10T13:46:32.618Z,14.00
2022-09-10T13:49:06.394Z,17.00
2022-09-10T13:51:51.980Z,15.00
2022-09-10T13:54:23.850Z,16.00
2022-09-10T13:56:52.630Z,14.50
2022-09-10T13:59:24.083Z,15.00
2022-09-10T14:01:55.513Z,13.00
2022-09-10T14:04:32.511Z,11.00
2022-09-10T14:07:20.449Z,18.00
2022-09-10T14:09:50.486Z,10.00
2022-09-10T14:12:19.664Z,14.00
2022-09-10T14:14:51.151Z,18.33
2022-09-10T14:17:21.441Z,22.50
2022-09-10T14:20:01.596Z,25.00
2022-09-10T14:22:31.408Z,27.00
2022-09-10T14:25:00.842Z,20.00
2022-09-10T14:27:31.141Z,19.00
2022-09-10T14:30:18.467Z,15.00
2022-09-10T14:32:46.675Z,16.00
2022-09-10T14:35:32.786Z,18.00
2022-09-10T14:38:04.586Z,16.33
2022-09-10T14:40:38.600Z,12.50
2022-09-10T14:43:15.467Z,18.00
2022-09-10T14:45:46.312Z,12.50
2022-09-10T14:48:38.627Z,14.00
2022-09-10T14:51:13.028Z,11.00
2022-09-10T14:53:41.905Z,20.00
2022-09-10T14:56:15.466Z,18.00
2022-09-10T14:58:46.083Z,14.00
2022-09-10T15:01:14.905Z,16.00
2022-09-10T15:03:42.751Z,14.00
2022-09-10T15:06:11.539Z,15.00
2022-09-10T15:08:39.713Z,20.00
2022-09-10T15:11:15.670Z,15.50
2022-09-10T15:13:45.585Z,17.00
2022-09-10T15:16:13.481Z,19.00
2022-09-10T15:18:41.283Z,15.00
2022-09-10T15:21:12.258Z,17.00
2022-09-10T15:23:40.329Z,14.50
2022-09-10T15:26:11.576Z,15.00
2022-09-10T15:28:39.653Z,12.00
2022-09-10T15:31:07.791Z,15.00
2022-09-10T15:33:36.306Z,14.00
2022-09-10T15:36:04.563Z,18.00
2022-09-10T15:38:32.347Z,15.00
2022-09-10T15:41:13.213Z,12.00
2022-09-10T15:43:43.236Z,13.50
2022-09-10T15:46:12.363Z,14.50
2022-09-10T15:48:40.444Z,15.00
2022-09-10T15:51:13.941Z,13.00
2022-09-10T15:53:42.795Z,15.50
2022-09-10T15:56:11.372Z,15.50
2022-09-10T15:58:39.790Z,14.00
2022-09-10T16:01:11.481Z,14.00
2022-09-10T16:03:44.206Z,19.33
2022-09-10T16:06:11.961Z,20.00
2022-09-10T16:08:40.055Z,15.00
2022-09-10T16:11:09.125Z,15.50
2022-09-10T16:13:39.957Z,14.00
2022-09-10T16:16:10.486Z,17.00
2022-09-10T16:18:38.341Z,16.00
2022-09-10T16:21:11.472Z,16.00
2022-09-10T16:23:40.241Z,21.50
2022-09-10T16:26:09.736Z,16.00
2022-09-10T16:28:37.749Z,14.00
2022-09-10T16:31:19.211Z,15.50
2022-09-10T16:33:47.863Z,17.50
2022-09-10T16:36:17.428Z,12.00
2022-09-10T16:38:45.472Z,13.00
2022-09-10T16:41:14.552Z,14.00
2022-09-10T16:43:42.961Z,12.00
2022-09-10T16:46:11.949Z,15.00
2022-09-10T16:48:41.536Z,14.50
2022-09-10T16:51:14.178Z,17.50
2022-09-10T16:53:45.591Z,15.00
2022-09-10T16:56:14.863Z,13.50
2022-09-10T16:58:46.452Z,14.00
2022-09-10T17:01:15.084Z,14.00
2022-09-10T17:03:44.305Z,13.00
2022-09-10T17:06:15.853Z,14.50
2022-09-10T17:08:45.263Z,13.00
2022-09-10T17:11:14.364Z,15.00
2022-09-10T17:13:42.674Z,15.00
2022-09-10T17:16:14.554Z,13.50
2022-09-10T17:18:43.501Z,15.00
2022-09-10T17:21:11.764Z,18.50
2022-09-10T17:23:40.416Z,17.00
2022-09-10T17:26:09.032Z,11.50
2022-09-10T17:28:37.560Z,17.00
2022-09-10T17:31:05.922Z,12.00
2022-09-10T17:33:33.800Z,17.00
2022-09-10T17:36:02.855Z,17.00
2022-09-10T17:38:33.716Z,15.00
2022-09-10T17:41:03.001Z,16.00
2022-09-10T17:43:34.902Z,18.00
2022-09-10T17:46:06.151Z,18.50
2022-09-10T17:48:35.868Z,17.00
2022-09-10T17:51:05.737Z,18.00
2022-09-10T17:53:34.714Z,21.50
2022-09-10T17:56:04.118Z,15.00
2022-09-10T17:58:36.711Z,20.00
2022-09-10T18:01:08.147Z,16.00
2022-09-10T18:03:36.516Z,19.00
2022-09-10T18:06:11.228Z,19.50
2022-09-10T18:08:39.738Z,18.00
2022-09-10T18:11:13.112Z,22.50
2022-09-10T18:13:41.370Z,20.00
2022-09-10T18:16:10.562Z,18.00
2022-09-10T18:18:39.771Z,22.00
2022-09-10T18:21:19.959Z,16.00
2022-09-10T18:23:55.199Z,17.00
2022-09-10T18:26:25.152Z,16.00
2022-09-10T18:28:58.736Z,20.00
2022-09-10T18:31:28.463Z,16.00
2022-09-10T18:33:58.243Z,15.00
2022-09-10T18:36:28.726Z,17.00
2022-09-10T18:38:56.535Z,17.00
2022-09-10T18:41:25.941Z,18.50
2022-09-10T18:43:58.549Z,17.00
2022-09-10T18:46:29.330Z,18.00
2022-09-10T18:48:58.202Z,14.50
2022-09-10T18:51:28.068Z,13.00
2022-09-10T18:53:58.907Z,15.00
2022-09-10T18:56:31.470Z,12.50
2022-09-10T18:59:01.365Z,16.00
2022-09-10T19:01:31.340Z,13.00
2022-09-10T19:03:59.367Z,14.50
2022-09-10T19:06:29.982Z,16.00
2022-09-10T19:09:04.839Z,21.00
2022-09-10T19:11:34.375Z,18.00
2022-09-10T19:14:04.979Z,17.00
2022-09-10T19:16:37.883Z,15.00
2022-09-10T19:19:06.866Z,13.00
2022-09-10T19:21:38.853Z,14.50
2022-09-10T19:24:06.823Z,15.00
2022-09-10T19:26:38.737Z,13.00
2022-09-10T19:29:06.919Z,13.50
2022-09-10T19:31:35.092Z,13.00
2022-09-10T19:34:05.560Z,14.00
2022-09-10T19:36:35.437Z,13.00
2022-09-10T19:39:05.296Z,14.00
2022-09-10T19:41:35.342Z,15.00
2022-09-10T19:44:03.877Z,14.50
2022-09-10T19:46:33.440Z,14.50
2022-09-10T19:49:01.813Z,16.00
2022-09-10T19:51:31.550Z,14.00
2022-09-10T19:54:00.642Z,11.50
2022-09-10T19:56:31.658Z,11.00
2022-09-10T19:59:00.405Z,20.00
2022-09-10T20:01:33.165Z,16.00
2022-09-10T20:04:01.785Z,12.00
2022-09-10T20:06:30.145Z,12.00
2022-09-10T20:08:58.919Z,11.00
2022-09-10T20:11:30.526Z,11.50
2022-09-10T20:14:02.722Z,11.00
2022-09-10T20:16:31.831Z,13.00
2022-09-10T20:19:02.387Z,10.00
2022-09-10T20:21:31.354Z,11.00
2022-09-10T20:23:59.079Z,12.00
2022-09-10T20:26:30.720Z,10.00
2022-09-10T20:29:00.782Z,11.00
2022-09-10T20:31:30.062Z,12.00
2022-09-10T20:34:03.656Z,10.00
2022-09-10T20:36:32.696Z,12.00
2022-09-10T20:39:00.797Z,13.00
2022-09-10T20:41:30.729Z,14.50
2022-09-10T20:44:05.584Z,12.00
2022-09-10T20:46:41.765Z,13.50
2022-09-10T20:49:11.570Z,12.00
2022-09-10T20:51:41.219Z,12.50
2022-09-10T20:54:18.862Z,12.00
2022-09-10T20:56:46.862Z,13.00
2022-09-10T20:59:16.684Z,12.00
2022-09-10T21:01:47.640Z,13.00
2022-09-10T21:04:19.827Z,14.00
2022-09-10T21:06:49.478Z,11.00
2022-09-10T21:09:18.077Z,13.00
2022-09-10T21:11:46.651Z,10.00
2022-09-10T21:14:14.364Z,13.00
2022-09-10T21:16:43.400Z,12.00
2022-09-10T21:19:13.425Z,12.50
2022-09-10T21:21:43.288Z,11.00
2022-09-10T21:24:13.662Z,10.00
2022-09-10T21:26:43.495Z,10.00
2022-09-10T21:29:14.519Z,9.00
2022-09-10T21:31:43.531Z,11.00
2022-09-10T21:34:12.785Z,12.00
2022-09-10T21:36:41.359Z,11.50
2022-09-10T21:39:16.612Z,13.00
2022-09-10T21:41:48.588Z,11.00
2022-09-10T21:44:21.228Z,10.00
2022-09-10T21:46:49.963Z,10.00
2022-09-10T21:49:18.573Z,10.00
2022-09-10T21:51:46.920Z,11.00
2022-09-10T21:54:17.117Z,12.50
2022-09-10T21:56:45.213Z,13.00
2022-09-10T21:59:14.566Z,13.00
2022-09-10T22:01:45.450Z,10.00
2022-09-10T22:04:16.825Z,10.50
2022-09-10T22:06:47.330Z,13.00
2022-09-10T22:09:16.023Z,15.00
2022-09-10T22:11:47.068Z,11.00
2022-09-10T22:14:16.244Z,11.00
2022-09-10T22:16:45.549Z,11.00
2022-09-10T22:19:15.741Z,12.50
2022-09-10T22:21:45.077Z,11.00
2022-09-10T22:24:14.894Z,11.50
2022-09-10T22:26:45.176Z,10.00
2022-09-10T22:29:15.334Z,11.00
2022-09-10T22:31:44.337Z,11.50
2022-09-10T22:34:14.708Z,11.50
2022-09-10T22:36:44.673Z,10.00
2022-09-10T22:39:14.902Z,11.00
2022-09-10T22:41:44.650Z,11.00
2022-09-10T22:44:12.888Z,11.00
2022-09-10T22:46:43.155Z,11.00
2022-09-10T22:49:11.277Z,12.50
2022-09-10T22:51:43.852Z,11.00
2022-09-10T22:54:13.310Z,12.50
2022-09-10T22:56:42.187Z,10.00
2022-09-10T22:59:14.779Z,12.00
2022-09-10T23:01:47.676Z,12.00
2022-09-10T23:04:17.232Z,10.00
2022-09-10T23:06:48.262Z,13.50
2022-09-10T23:09:17.547Z,12.50
2022-09-10T23:11:47.703Z,13.00
2022-09-10T23:14:22.038Z,12.00
2022-09-10T23:16:51.970Z,12.00
2022-09-10T23:19:22.165Z,13.00
2022-09-10T23:21:54.259Z,12.00
2022-09-10T23:24:24.512Z,10.00
2022-09-10T23:26:53.630Z,11.00
2022-09-10T23:29:23.439Z,12.00
2022-09-10T23:31:55.295Z,11.00
2022-09-10T23:34:23.263Z,14.00
2022-09-10T23:36:51.846Z,11.00
2022-09-10T23:39:21.245Z,14.00
2022-09-10T23:41:49.590Z,10.00
2022-09-10T23:44:18.110Z,11.00
2022-09-10T23:46:46.649Z,10.00
2022-09-10T23:49:16.041Z,11.00
2022-09-10T23:51:44.070Z,11.50
2022-09-10T23:54:12.626Z,11.00
2022-09-10T23:56:40.834Z,12.00
2022-09-10T23:59:10.291Z,11.00
